sensor_id;sensor_type;location;lat;lon;timestamp;temperature;humidity
52555;DHT22;38455;52.710;6.502;2024-01-07T00:00:28;0.90;99.90
52555;DHT22;38455;52.710;6.502;2024-01-07T00:02:55;1.00;99.90
52555;DHT22;38455;52.710;6.502;2024-01-07T00:05:20;0.90;99.90
52555;DHT22;38455;52.710;6.502;2024-01-07T00:07:46;0.90;99.90
52555;DHT22;38455;52.710;6.502;2024-01-07T00:10:13;0.90;99.90
52555;DHT22;38455;52.710;6.502;2024-01-07T00:12:39;0.90;99.90
52555;DHT22;38455;52.710;6.502;2024-01-07T00:15:04;0.80;99.90
52555;DHT22;38455;52.710;6.502;2024-01-07T00:17:30;0.90;99.90
52555;DHT22;38455;52.710;6.502;2024-01-07T00:19:56;0.90;99.90
52555;DHT22;38455;52.710;6.502;2024-01-07T00:22:21;0.80;99.90
52555;DHT22;38455;52.710;6.502;2024-01-07T00:24:47;0.80;99.90
52555;DHT22;38455;52.710;6.502;2024-01-07T00:27:12;0.90;99.90
52555;DHT22;38455;52.710;6.502;2024-01-07T00:29:38;0.90;99.90
52555;DHT22;38455;52.710;6.502;2024-01-07T00:32:04;0.90;99.90
52555;DHT22;38455;52.710;6.502;2024-01-07T00:34:29;0.80;99.90
52555;DHT22;38455;52.710;6.502;2024-01-07T00:36:55;0.80;99.90
52555;DHT22;38455;52.710;6.502;2024-01-07T00:39:21;0.80;99.90
52555;DHT22;38455;52.710;6.502;2024-01-07T00:41:46;0.80;99.90
52555;DHT22;38455;52.710;6.502;2024-01-07T00:44:12;0.80;99.90
52555;DHT22;38455;52.710;6.502;2024-01-07T00:46:37;0.80;99.90
52555;DHT22;38455;52.710;6.502;2024-01-07T00:49:03;0.80;99.90
52555;DHT22;38455;52.710;6.502;2024-01-07T00:51:29;0.70;99.90
52555;DHT22;38455;52.710;6.502;2024-01-07T00:53:54;0.80;99.90
52555;DHT22;38455;52.710;6.502;2024-01-07T00:56:20;0.80;99.90
52555;DHT22;38455;52.710;6.502;2024-01-07T00:58:45;0.80;99.90
52555;DHT22;38455;52.710;6.502;2024-01-07T01:01:11;0.80;99.90
52555;DHT22;38455;52.710;6.502;2024-01-07T01:03:36;0.80;99.90
52555;DHT22;38455;52.710;6.502;2024-01-07T01:06:02;0.80;99.90
52555;DHT22;38455;52.710;6.502;2024-01-07T01:08:27;0.80;99.90
52555;DHT22;38455;52.710;6.502;2024-01-07T01:10:53;0.80;99.90
52555;DHT22;38455;52.710;6.502;2024-01-07T01:13:18;0.80;99.90
52555;DHT22;38455;52.710;6.502;2024-01-07T01:15:44;0.80;99.90
52555;DHT22;38455;52.710;6.502;2024-01-07T01:18:10;0.80;99.90
52555;DHT22;38455;52.710;6.502;2024-01-07T01:20:35;0.80;99.90
52555;DHT22;38455;52.710;6.502;2024-01-07T01:23:01;0.80;99.90
52555;DHT22;38455;52.710;6.502;2024-01-07T01:25:27;0.70;99.90
52555;DHT22;38455;52.710;6.502;2024-01-07T01:27:53;0.80;99.90
52555;DHT22;38455;52.710;6.502;2024-01-07T01:30:18;0.80;99.90
52555;DHT22;38455;52.710;6.502;2024-01-07T01:32:44;0.70;99.90
52555;DHT22;38455;52.710;6.502;2024-01-07T01:35:10;0.80;99.90
52555;DHT22;38455;52.710;6.502;2024-01-07T01:37:35;0.80;99.90
52555;DHT22;38455;52.710;6.502;2024-01-07T01:40:01;0.80;99.90
52555;DHT22;38455;52.710;6.502;2024-01-07T01:42:26;0.80;99.90
52555;DHT22;38455;52.710;6.502;2024-01-07T01:44:52;0.70;99.90
52555;DHT22;38455;52.710;6.502;2024-01-07T01:47:22;0.70;99.90
52555;DHT22;38455;52.710;6.502;2024-01-07T01:49:48;0.70;99.90
52555;DHT22;38455;52.710;6.502;2024-01-07T01:52:14;0.70;99.90
52555;DHT22;38455;52.710;6.502;2024-01-07T01:54:39;0.80;99.90
52555;DHT22;38455;52.710;6.502;2024-01-07T01:57:05;0.70;99.90
52555;DHT22;38455;52.710;6.502;2024-01-07T01:59:31;0.70;99.90
52555;DHT22;38455;52.710;6.502;2024-01-07T02:01:57;0.80;99.90
52555;DHT22;38455;52.710;6.502;2024-01-07T02:04:22;0.70;99.90
52555;DHT22;38455;52.710;6.502;2024-01-07T02:06:48;0.80;99.90
52555;DHT22;38455;52.710;6.502;2024-01-07T02:09:14;0.80;99.90
52555;DHT22;38455;52.710;6.502;2024-01-07T02:11:39;0.80;99.90
52555;DHT22;38455;52.710;6.502;2024-01-07T02:14:05;0.70;99.90
52555;DHT22;38455;52.710;6.502;2024-01-07T02:16:30;0.80;99.90
52555;DHT22;38455;52.710;6.502;2024-01-07T02:18:56;0.80;99.90
52555;DHT22;38455;52.710;6.502;2024-01-07T02:21:21;0.80;99.90
52555;DHT22;38455;52.710;6.502;2024-01-07T02:23:47;0.80;99.90
52555;DHT22;38455;52.710;6.502;2024-01-07T02:26:12;0.80;99.90
52555;DHT22;38455;52.710;6.502;2024-01-07T02:28:38;0.80;99.90
52555;DHT22;38455;52.710;6.502;2024-01-07T02:31:03;0.90;99.90
52555;DHT22;38455;52.710;6.502;2024-01-07T02:33:29;0.80;99.90
52555;DHT22;38455;52.710;6.502;2024-01-07T02:35:56;0.80;99.90
52555;DHT22;38455;52.710;6.502;2024-01-07T02:38:21;0.80;99.90
52555;DHT22;38455;52.710;6.502;2024-01-07T02:40:47;0.80;99.90
52555;DHT22;38455;52.710;6.502;2024-01-07T02:43:12;0.80;99.90
52555;DHT22;38455;52.710;6.502;2024-01-07T02:45:38;0.70;99.90
52555;DHT22;38455;52.710;6.502;2024-01-07T02:48:04;0.80;99.90
52555;DHT22;38455;52.710;6.502;2024-01-07T02:50:29;0.80;99.90
52555;DHT22;38455;52.710;6.502;2024-01-07T02:52:55;0.80;99.90
52555;DHT22;38455;52.710;6.502;2024-01-07T02:55:20;0.80;99.90
52555;DHT22;38455;52.710;6.502;2024-01-07T02:57:46;0.80;99.90
52555;DHT22;38455;52.710;6.502;2024-01-07T03:00:12;0.70;99.90
52555;DHT22;38455;52.710;6.502;2024-01-07T03:02:37;0.70;99.90
52555;DHT22;38455;52.710;6.502;2024-01-07T03:05:03;0.70;99.90
52555;DHT22;38455;52.710;6.502;2024-01-07T03:07:29;0.80;99.90
52555;DHT22;38455;52.710;6.502;2024-01-07T03:09:54;0.70;99.90
52555;DHT22;38455;52.710;6.502;2024-01-07T03:12:20;0.70;99.90
52555;DHT22;38455;52.710;6.502;2024-01-07T03:14:45;0.70;99.90
52555;DHT22;38455;52.710;6.502;2024-01-07T03:17:11;0.80;99.90
52555;DHT22;38455;52.710;6.502;2024-01-07T03:19:39;0.70;99.90
52555;DHT22;38455;52.710;6.502;2024-01-07T03:22:06;0.70;99.90
52555;DHT22;38455;52.710;6.502;2024-01-07T03:24:32;0.70;99.90
52555;DHT22;38455;52.710;6.502;2024-01-07T03:26:58;0.70;99.90
52555;DHT22;38455;52.710;6.502;2024-01-07T03:29:23;0.70;99.90
52555;DHT22;38455;52.710;6.502;2024-01-07T03:31:49;0.70;99.90
52555;DHT22;38455;52.710;6.502;2024-01-07T03:34:16;0.60;99.90
52555;DHT22;38455;52.710;6.502;2024-01-07T03:36:41;0.70;99.90
52555;DHT22;38455;52.710;6.502;2024-01-07T03:39:07;0.60;99.90
52555;DHT22;38455;52.710;6.502;2024-01-07T03:41:32;0.60;99.90
52555;DHT22;38455;52.710;6.502;2024-01-07T03:43:58;0.60;99.90
52555;DHT22;38455;52.710;6.502;2024-01-07T03:46:24;0.60;99.90
52555;DHT22;38455;52.710;6.502;2024-01-07T03:48:49;0.60;99.90
52555;DHT22;38455;52.710;6.502;2024-01-07T03:51:15;0.50;99.90
52555;DHT22;38455;52.710;6.502;2024-01-07T03:53:40;0.60;99.90
52555;DHT22;38455;52.710;6.502;2024-01-07T03:56:06;0.50;99.90
52555;DHT22;38455;52.710;6.502;2024-01-07T03:58:32;0.50;99.90
52555;DHT22;38455;52.710;6.502;2024-01-07T04:00:57;0.50;99.90
52555;DHT22;38455;52.710;6.502;2024-01-07T04:03:23;0.50;99.90
52555;DHT22;38455;52.710;6.502;2024-01-07T04:05:48;0.60;99.90
52555;DHT22;38455;52.710;6.502;2024-01-07T04:08:14;0.50;99.90
52555;DHT22;38455;52.710;6.502;2024-01-07T04:10:41;0.50;99.90
52555;DHT22;38455;52.710;6.502;2024-01-07T04:13:06;0.50;99.90
52555;DHT22;38455;52.710;6.502;2024-01-07T04:15:32;0.60;99.90
52555;DHT22;38455;52.710;6.502;2024-01-07T04:18:00;0.50;99.90
52555;DHT22;38455;52.710;6.502;2024-01-07T04:20:26;0.50;99.90
52555;DHT22;38455;52.710;6.502;2024-01-07T04:22:51;0.50;99.90
52555;DHT22;38455;52.710;6.502;2024-01-07T04:25:17;0.50;99.90
52555;DHT22;38455;52.710;6.502;2024-01-07T04:27:42;0.50;99.90
52555;DHT22;38455;52.710;6.502;2024-01-07T04:30:08;0.50;99.90
52555;DHT22;38455;52.710;6.502;2024-01-07T04:32:34;0.60;99.90
52555;DHT22;38455;52.710;6.502;2024-01-07T04:35:00;0.50;99.90
52555;DHT22;38455;52.710;6.502;2024-01-07T04:37:25;0.50;99.90
52555;DHT22;38455;52.710;6.502;2024-01-07T04:39:51;0.50;99.90
52555;DHT22;38455;52.710;6.502;2024-01-07T04:42:17;0.50;99.90
52555;DHT22;38455;52.710;6.502;2024-01-07T04:44:42;0.50;99.90
52555;DHT22;38455;52.710;6.502;2024-01-07T04:47:27;0.50;99.90
52555;DHT22;38455;52.710;6.502;2024-01-07T04:49:53;0.50;99.90
52555;DHT22;38455;52.710;6.502;2024-01-07T04:52:19;0.50;99.90
52555;DHT22;38455;52.710;6.502;2024-01-07T04:54:44;0.40;99.90
52555;DHT22;38455;52.710;6.502;2024-01-07T04:57:10;0.40;99.90
52555;DHT22;38455;52.710;6.502;2024-01-07T04:59:35;0.40;99.90
52555;DHT22;38455;52.710;6.502;2024-01-07T05:02:01;0.40;99.90
52555;DHT22;38455;52.710;6.502;2024-01-07T05:04:27;0.40;99.90
52555;DHT22;38455;52.710;6.502;2024-01-07T05:06:52;0.40;99.90
52555;DHT22;38455;52.710;6.502;2024-01-07T05:09:18;0.30;99.90
52555;DHT22;38455;52.710;6.502;2024-01-07T05:11:43;0.30;99.90
52555;DHT22;38455;52.710;6.502;2024-01-07T05:14:10;0.30;99.90
52555;DHT22;38455;52.710;6.502;2024-01-07T05:16:36;0.30;99.90
52555;DHT22;38455;52.710;6.502;2024-01-07T05:19:01;0.30;99.90
52555;DHT22;38455;52.710;6.502;2024-01-07T05:21:27;0.30;99.90
52555;DHT22;38455;52.710;6.502;2024-01-07T05:23:52;0.30;99.90
52555;DHT22;38455;52.710;6.502;2024-01-07T05:26:18;0.30;99.90
52555;DHT22;38455;52.710;6.502;2024-01-07T05:28:43;0.30;99.90
52555;DHT22;38455;52.710;6.502;2024-01-07T05:31:16;0.30;99.90
52555;DHT22;38455;52.710;6.502;2024-01-07T05:33:42;0.30;99.90
52555;DHT22;38455;52.710;6.502;2024-01-07T05:36:07;0.30;99.90
52555;DHT22;38455;52.710;6.502;2024-01-07T05:38:33;0.30;99.90
52555;DHT22;38455;52.710;6.502;2024-01-07T05:40:58;0.30;99.90
52555;DHT22;38455;52.710;6.502;2024-01-07T05:43:24;0.30;99.90
52555;DHT22;38455;52.710;6.502;2024-01-07T05:45:49;0.30;99.90
52555;DHT22;38455;52.710;6.502;2024-01-07T05:48:15;0.30;99.90
52555;DHT22;38455;52.710;6.502;2024-01-07T05:50:41;0.20;99.90
52555;DHT22;38455;52.710;6.502;2024-01-07T05:53:06;0.20;99.90
52555;DHT22;38455;52.710;6.502;2024-01-07T05:55:32;0.20;99.90
52555;DHT22;38455;52.710;6.502;2024-01-07T05:57:57;0.20;99.90
52555;DHT22;38455;52.710;6.502;2024-01-07T06:00:23;0.30;99.90
52555;DHT22;38455;52.710;6.502;2024-01-07T06:02:49;0.20;99.90
52555;DHT22;38455;52.710;6.502;2024-01-07T06:05:14;0.20;99.90
52555;DHT22;38455;52.710;6.502;2024-01-07T06:07:40;0.20;99.90
52555;DHT22;38455;52.710;6.502;2024-01-07T06:10:05;0.20;99.90
52555;DHT22;38455;52.710;6.502;2024-01-07T06:12:31;0.20;99.90
52555;DHT22;38455;52.710;6.502;2024-01-07T06:14:57;0.30;99.90
52555;DHT22;38455;52.710;6.502;2024-01-07T06:17:22;0.20;99.90
52555;DHT22;38455;52.710;6.502;2024-01-07T06:19:48;0.20;99.90
52555;DHT22;38455;52.710;6.502;2024-01-07T06:22:13;0.20;99.90
52555;DHT22;38455;52.710;6.502;2024-01-07T06:24:39;0.20;99.90
52555;DHT22;38455;52.710;6.502;2024-01-07T06:27:05;0.10;99.90
52555;DHT22;38455;52.710;6.502;2024-01-07T06:29:30;0.20;99.90
52555;DHT22;38455;52.710;6.502;2024-01-07T06:31:56;0.20;99.90
52555;DHT22;38455;52.710;6.502;2024-01-07T06:34:21;0.10;99.90
52555;DHT22;38455;52.710;6.502;2024-01-07T06:36:47;0.20;99.90
52555;DHT22;38455;52.710;6.502;2024-01-07T06:39:12;0.10;99.90
52555;DHT22;38455;52.710;6.502;2024-01-07T06:41:38;0.20;99.90
52555;DHT22;38455;52.710;6.502;2024-01-07T06:44:03;0.20;99.90
52555;DHT22;38455;52.710;6.502;2024-01-07T06:46:29;0.10;99.90
52555;DHT22;38455;52.710;6.502;2024-01-07T06:48:55;0.20;99.90
52555;DHT22;38455;52.710;6.502;2024-01-07T06:51:20;0.20;99.90
52555;DHT22;38455;52.710;6.502;2024-01-07T06:53:46;0.20;99.90
52555;DHT22;38455;52.710;6.502;2024-01-07T06:56:12;0.20;99.90
52555;DHT22;38455;52.710;6.502;2024-01-07T06:58:38;0.20;99.90
52555;DHT22;38455;52.710;6.502;2024-01-07T07:01:06;0.20;99.90
52555;DHT22;38455;52.710;6.502;2024-01-07T07:03:31;0.20;99.90
52555;DHT22;38455;52.710;6.502;2024-01-07T07:05:57;0.20;99.90
52555;DHT22;38455;52.710;6.502;2024-01-07T07:08:22;0.20;99.90
52555;DHT22;38455;52.710;6.502;2024-01-07T07:10:48;0.20;99.90
52555;DHT22;38455;52.710;6.502;2024-01-07T07:13:13;0.20;99.90
52555;DHT22;38455;52.710;6.502;2024-01-07T07:15:40;0.20;99.90
52555;DHT22;38455;52.710;6.502;2024-01-07T07:18:05;0.20;99.90
52555;DHT22;38455;52.710;6.502;2024-01-07T07:20:31;0.20;99.90
52555;DHT22;38455;52.710;6.502;2024-01-07T07:22:57;0.30;99.90
52555;DHT22;38455;52.710;6.502;2024-01-07T07:25:22;0.20;99.90
52555;DHT22;38455;52.710;6.502;2024-01-07T07:27:48;0.20;99.90
52555;DHT22;38455;52.710;6.502;2024-01-07T07:30:13;0.20;99.90
52555;DHT22;38455;52.710;6.502;2024-01-07T07:32:39;0.20;99.90
52555;DHT22;38455;52.710;6.502;2024-01-07T07:35:06;0.20;99.90
52555;DHT22;38455;52.710;6.502;2024-01-07T07:37:33;0.20;99.90
52555;DHT22;38455;52.710;6.502;2024-01-07T07:39:58;0.20;99.90
52555;DHT22;38455;52.710;6.502;2024-01-07T07:42:24;0.20;99.90
52555;DHT22;38455;52.710;6.502;2024-01-07T07:44:49;0.20;99.90
52555;DHT22;38455;52.710;6.502;2024-01-07T07:47:15;0.30;99.90
52555;DHT22;38455;52.710;6.502;2024-01-07T07:49:40;0.20;99.90
52555;DHT22;38455;52.710;6.502;2024-01-07T07:52:07;0.20;99.90
52555;DHT22;38455;52.710;6.502;2024-01-07T07:54:32;0.20;99.90
52555;DHT22;38455;52.710;6.502;2024-01-07T07:56:58;0.20;99.90
52555;DHT22;38455;52.710;6.502;2024-01-07T07:59:23;0.20;99.90
52555;DHT22;38455;52.710;6.502;2024-01-07T08:01:49;0.30;99.90
52555;DHT22;38455;52.710;6.502;2024-01-07T08:04:15;0.30;99.90
52555;DHT22;38455;52.710;6.502;2024-01-07T08:06:41;0.30;99.90
52555;DHT22;38455;52.710;6.502;2024-01-07T08:09:08;0.20;99.90
52555;DHT22;38455;52.710;6.502;2024-01-07T08:11:34;0.20;99.90
52555;DHT22;38455;52.710;6.502;2024-01-07T08:13:59;0.10;99.90
52555;DHT22;38455;52.710;6.502;2024-01-07T08:16:27;0.10;99.90
52555;DHT22;38455;52.710;6.502;2024-01-07T08:18:52;0.10;99.90
52555;DHT22;38455;52.710;6.502;2024-01-07T08:21:18;0.10;99.90
52555;DHT22;38455;52.710;6.502;2024-01-07T08:23:43;0.10;99.90
52555;DHT22;38455;52.710;6.502;2024-01-07T08:26:09;0.10;99.90
52555;DHT22;38455;52.710;6.502;2024-01-07T08:28:34;0.10;99.90
52555;DHT22;38455;52.710;6.502;2024-01-07T08:31:00;0.20;99.90
52555;DHT22;38455;52.710;6.502;2024-01-07T08:33:26;0.20;99.90
52555;DHT22;38455;52.710;6.502;2024-01-07T08:35:51;0.20;99.90
52555;DHT22;38455;52.710;6.502;2024-01-07T08:38:17;0.20;99.90
52555;DHT22;38455;52.710;6.502;2024-01-07T08:40:42;0.20;99.90
52555;DHT22;38455;52.710;6.502;2024-01-07T08:43:08;0.20;99.90
52555;DHT22;38455;52.710;6.502;2024-01-07T08:45:34;0.20;99.90
52555;DHT22;38455;52.710;6.502;2024-01-07T08:47:59;0.10;99.90
52555;DHT22;38455;52.710;6.502;2024-01-07T08:50:25;0.10;99.90
52555;DHT22;38455;52.710;6.502;2024-01-07T08:52:50;0.00;99.90
52555;DHT22;38455;52.710;6.502;2024-01-07T08:55:16;0.00;99.90
52555;DHT22;38455;52.710;6.502;2024-01-07T08:57:41;0.00;99.90
52555;DHT22;38455;52.710;6.502;2024-01-07T09:00:07;0.00;99.90
52555;DHT22;38455;52.710;6.502;2024-01-07T09:02:33;0.00;99.90
52555;DHT22;38455;52.710;6.502;2024-01-07T09:04:59;0.00;99.90
52555;DHT22;38455;52.710;6.502;2024-01-07T09:07:24;-0.10;99.90
52555;DHT22;38455;52.710;6.502;2024-01-07T09:09:50;-0.10;99.90
52555;DHT22;38455;52.710;6.502;2024-01-07T09:12:15;-0.10;99.90
52555;DHT22;38455;52.710;6.502;2024-01-07T09:14:41;-0.10;99.90
52555;DHT22;38455;52.710;6.502;2024-01-07T09:17:07;-0.10;99.90
52555;DHT22;38455;52.710;6.502;2024-01-07T09:19:32;-0.10;99.90
52555;DHT22;38455;52.710;6.502;2024-01-07T09:21:58;-0.10;99.90
52555;DHT22;38455;52.710;6.502;2024-01-07T09:24:23;-0.10;99.90
52555;DHT22;38455;52.710;6.502;2024-01-07T09:26:49;0.00;99.90
52555;DHT22;38455;52.710;6.502;2024-01-07T09:29:14;0.00;99.90
52555;DHT22;38455;52.710;6.502;2024-01-07T09:31:40;0.00;99.90
52555;DHT22;38455;52.710;6.502;2024-01-07T09:34:06;0.00;99.90
52555;DHT22;38455;52.710;6.502;2024-01-07T09:36:32;0.20;99.90
52555;DHT22;38455;52.710;6.502;2024-01-07T09:38:58;0.10;99.90
52555;DHT22;38455;52.710;6.502;2024-01-07T09:41:23;0.10;99.90
52555;DHT22;38455;52.710;6.502;2024-01-07T09:43:49;0.20;99.90
52555;DHT22;38455;52.710;6.502;2024-01-07T09:46:16;0.10;99.90
52555;DHT22;38455;52.710;6.502;2024-01-07T09:48:41;0.20;99.90
52555;DHT22;38455;52.710;6.502;2024-01-07T09:51:08;0.20;99.90
52555;DHT22;38455;52.710;6.502;2024-01-07T09:53:34;0.20;99.90
52555;DHT22;38455;52.710;6.502;2024-01-07T09:56:17;0.20;99.90
52555;DHT22;38455;52.710;6.502;2024-01-07T09:58:45;0.30;99.90
52555;DHT22;38455;52.710;6.502;2024-01-07T10:01:10;0.40;99.90
52555;DHT22;38455;52.710;6.502;2024-01-07T10:03:36;0.40;99.90
52555;DHT22;38455;52.710;6.502;2024-01-07T10:06:02;0.40;99.90
52555;DHT22;38455;52.710;6.502;2024-01-07T10:08:27;0.50;99.90
52555;DHT22;38455;52.710;6.502;2024-01-07T10:10:53;0.50;99.90
52555;DHT22;38455;52.710;6.502;2024-01-07T10:13:19;0.50;99.90
52555;DHT22;38455;52.710;6.502;2024-01-07T10:15:45;0.50;99.90
52555;DHT22;38455;52.710;6.502;2024-01-07T10:18:11;0.60;99.90
52555;DHT22;38455;52.710;6.502;2024-01-07T10:20:36;0.60;99.90
52555;DHT22;38455;52.710;6.502;2024-01-07T10:23:03;0.70;99.90
52555;DHT22;38455;52.710;6.502;2024-01-07T10:25:32;0.70;99.90
52555;DHT22;38455;52.710;6.502;2024-01-07T10:28:01;0.70;99.90
52555;DHT22;38455;52.710;6.502;2024-01-07T10:30:27;0.80;99.90
52555;DHT22;38455;52.710;6.502;2024-01-07T10:32:57;0.90;99.90
52555;DHT22;38455;52.710;6.502;2024-01-07T10:35:24;0.90;99.90
52555;DHT22;38455;52.710;6.502;2024-01-07T10:37:51;0.90;99.90
52555;DHT22;38455;52.710;6.502;2024-01-07T10:40:17;1.00;99.90
52555;DHT22;38455;52.710;6.502;2024-01-07T10:42:43;1.00;99.90
52555;DHT22;38455;52.710;6.502;2024-01-07T10:45:09;1.10;99.90
52555;DHT22;38455;52.710;6.502;2024-01-07T10:47:36;1.30;99.90
52555;DHT22;38455;52.710;6.502;2024-01-07T10:50:01;1.40;99.90
52555;DHT22;38455;52.710;6.502;2024-01-07T10:52:27;1.40;99.90
52555;DHT22;38455;52.710;6.502;2024-01-07T10:54:53;1.50;99.90
52555;DHT22;38455;52.710;6.502;2024-01-07T10:57:24;1.60;99.90
52555;DHT22;38455;52.710;6.502;2024-01-07T10:59:53;1.60;99.90
52555;DHT22;38455;52.710;6.502;2024-01-07T11:02:19;1.50;99.90
52555;DHT22;38455;52.710;6.502;2024-01-07T11:04:48;1.60;99.90
52555;DHT22;38455;52.710;6.502;2024-01-07T11:09:45;1.60;99.90
52555;DHT22;38455;52.710;6.502;2024-01-07T11:12:14;1.60;99.90
52555;DHT22;38455;52.710;6.502;2024-01-07T11:14:40;1.50;99.90
52555;DHT22;38455;52.710;6.502;2024-01-07T11:17:10;1.50;99.90
52555;DHT22;38455;52.710;6.502;2024-01-07T11:19:36;1.50;99.90
52555;DHT22;38455;52.710;6.502;2024-01-07T11:24:47;1.40;99.90
52555;DHT22;38455;52.710;6.502;2024-01-07T11:27:12;1.40;99.90
52555;DHT22;38455;52.710;6.502;2024-01-07T11:29:38;1.30;99.90
52555;DHT22;38455;52.710;6.502;2024-01-07T11:32:03;1.40;99.90
52555;DHT22;38455;52.710;6.502;2024-01-07T11:34:40;1.40;99.90
52555;DHT22;38455;52.710;6.502;2024-01-07T11:37:12;1.30;99.90
52555;DHT22;38455;52.710;6.502;2024-01-07T11:39:41;1.30;99.90
52555;DHT22;38455;52.710;6.502;2024-01-07T11:42:07;1.40;99.90
52555;DHT22;38455;52.710;6.502;2024-01-07T11:44:34;1.50;99.90
52555;DHT22;38455;52.710;6.502;2024-01-07T11:46:59;1.40;99.90
52555;DHT22;38455;52.710;6.502;2024-01-07T11:49:25;1.40;99.90
52555;DHT22;38455;52.710;6.502;2024-01-07T11:51:51;1.50;99.90
52555;DHT22;38455;52.710;6.502;2024-01-07T11:54:16;1.50;99.90
52555;DHT22;38455;52.710;6.502;2024-01-07T11:56:43;1.40;99.90
52555;DHT22;38455;52.710;6.502;2024-01-07T11:59:08;1.50;99.90
52555;DHT22;38455;52.710;6.502;2024-01-07T12:01:34;1.50;99.90
52555;DHT22;38455;52.710;6.502;2024-01-07T12:03:59;1.50;99.90
52555;DHT22;38455;52.710;6.502;2024-01-07T12:06:25;1.50;99.90
52555;DHT22;38455;52.710;6.502;2024-01-07T12:08:51;1.50;99.90
52555;DHT22;38455;52.710;6.502;2024-01-07T12:11:17;1.60;99.90
52555;DHT22;38455;52.710;6.502;2024-01-07T12:13:43;1.70;99.90
52555;DHT22;38455;52.710;6.502;2024-01-07T12:16:10;1.80;99.90
52555;DHT22;38455;52.710;6.502;2024-01-07T12:18:36;2.10;99.90
52555;DHT22;38455;52.710;6.502;2024-01-07T12:21:02;2.10;99.90
52555;DHT22;38455;52.710;6.502;2024-01-07T12:23:27;2.10;99.90
52555;DHT22;38455;52.710;6.502;2024-01-07T12:25:53;2.30;99.90
52555;DHT22;38455;52.710;6.502;2024-01-07T12:28:19;2.10;99.90
52555;DHT22;38455;52.710;6.502;2024-01-07T12:30:45;2.00;99.90
52555;DHT22;38455;52.710;6.502;2024-01-07T12:33:10;2.50;99.90
52555;DHT22;38455;52.710;6.502;2024-01-07T12:35:36;3.10;99.90
52555;DHT22;38455;52.710;6.502;2024-01-07T12:38:02;3.60;99.90
52555;DHT22;38455;52.710;6.502;2024-01-07T12:40:27;3.50;99.90
52555;DHT22;38455;52.710;6.502;2024-01-07T12:42:53;3.20;99.90
52555;DHT22;38455;52.710;6.502;2024-01-07T12:45:19;3.20;99.90
52555;DHT22;38455;52.710;6.502;2024-01-07T12:47:44;3.00;99.90
52555;DHT22;38455;52.710;6.502;2024-01-07T12:50:11;3.10;99.90
52555;DHT22;38455;52.710;6.502;2024-01-07T12:52:37;3.00;99.90
52555;DHT22;38455;52.710;6.502;2024-01-07T12:55:04;3.10;99.90
52555;DHT22;38455;52.710;6.502;2024-01-07T12:57:29;3.30;99.90
52555;DHT22;38455;52.710;6.502;2024-01-07T12:59:55;3.60;99.90
52555;DHT22;38455;52.710;6.502;2024-01-07T13:02:20;3.50;99.90
52555;DHT22;38455;52.710;6.502;2024-01-07T13:04:46;3.70;99.90
52555;DHT22;38455;52.710;6.502;2024-01-07T13:07:12;3.60;99.90
52555;DHT22;38455;52.710;6.502;2024-01-07T13:09:37;3.30;99.90
52555;DHT22;38455;52.710;6.502;2024-01-07T13:12:03;3.10;99.90
52555;DHT22;38455;52.710;6.502;2024-01-07T13:14:29;2.90;99.90
52555;DHT22;38455;52.710;6.502;2024-01-07T13:16:55;2.60;99.90
52555;DHT22;38455;52.710;6.502;2024-01-07T13:19:20;2.50;99.90
52555;DHT22;38455;52.710;6.502;2024-01-07T13:21:46;2.60;99.90
52555;DHT22;38455;52.710;6.502;2024-01-07T13:24:12;2.60;99.90
52555;DHT22;38455;52.710;6.502;2024-01-07T13:26:37;2.60;99.90
52555;DHT22;38455;52.710;6.502;2024-01-07T13:29:03;2.50;99.90
52555;DHT22;38455;52.710;6.502;2024-01-07T13:31:29;2.60;99.90
52555;DHT22;38455;52.710;6.502;2024-01-07T13:33:54;2.50;99.90
52555;DHT22;38455;52.710;6.502;2024-01-07T13:36:20;2.20;99.90
52555;DHT22;38455;52.710;6.502;2024-01-07T13:38:45;2.00;99.90
52555;DHT22;38455;52.710;6.502;2024-01-07T13:41:17;1.80;99.90
52555;DHT22;38455;52.710;6.502;2024-01-07T13:43:43;1.60;99.90
52555;DHT22;38455;52.710;6.502;2024-01-07T13:46:09;1.50;99.90
52555;DHT22;38455;52.710;6.502;2024-01-07T13:48:35;1.50;99.90
52555;DHT22;38455;52.710;6.502;2024-01-07T13:51:00;1.40;99.90
52555;DHT22;38455;52.710;6.502;2024-01-07T13:53:26;1.50;99.90
52555;DHT22;38455;52.710;6.502;2024-01-07T13:55:52;1.40;99.90
52555;DHT22;38455;52.710;6.502;2024-01-07T13:58:17;1.40;99.90
52555;DHT22;38455;52.710;6.502;2024-01-07T14:00:45;1.50;99.90
52555;DHT22;38455;52.710;6.502;2024-01-07T14:03:10;1.50;99.90
52555;DHT22;38455;52.710;6.502;2024-01-07T14:05:36;1.50;99.90
52555;DHT22;38455;52.710;6.502;2024-01-07T14:08:02;1.50;99.90
52555;DHT22;38455;52.710;6.502;2024-01-07T14:10:28;1.40;99.90
52555;DHT22;38455;52.710;6.502;2024-01-07T14:12:54;1.50;99.90
52555;DHT22;38455;52.710;6.502;2024-01-07T14:15:20;1.40;99.90
52555;DHT22;38455;52.710;6.502;2024-01-07T14:17:45;1.40;99.90
52555;DHT22;38455;52.710;6.502;2024-01-07T14:20:11;1.50;99.90
52555;DHT22;38455;52.710;6.502;2024-01-07T14:22:36;1.50;99.90
52555;DHT22;38455;52.710;6.502;2024-01-07T14:25:02;1.60;99.90
52555;DHT22;38455;52.710;6.502;2024-01-07T14:27:28;1.60;99.90
52555;DHT22;38455;52.710;6.502;2024-01-07T14:29:54;1.60;99.90
52555;DHT22;38455;52.710;6.502;2024-01-07T14:32:21;1.60;99.90
52555;DHT22;38455;52.710;6.502;2024-01-07T14:34:47;1.50;99.90
52555;DHT22;38455;52.710;6.502;2024-01-07T14:37:15;1.50;99.90
52555;DHT22;38455;52.710;6.502;2024-01-07T14:39:40;1.50;99.90
52555;DHT22;38455;52.710;6.502;2024-01-07T14:42:06;1.60;99.90
52555;DHT22;38455;52.710;6.502;2024-01-07T14:44:31;1.70;99.90
52555;DHT22;38455;52.710;6.502;2024-01-07T14:46:57;1.70;99.90
52555;DHT22;38455;52.710;6.502;2024-01-07T14:49:23;1.80;99.90
52555;DHT22;38455;52.710;6.502;2024-01-07T14:51:48;1.90;99.90
52555;DHT22;38455;52.710;6.502;2024-01-07T14:54:14;1.80;99.90
52555;DHT22;38455;52.710;6.502;2024-01-07T14:56:39;1.90;99.90
52555;DHT22;38455;52.710;6.502;2024-01-07T14:59:05;1.80;99.90
52555;DHT22;38455;52.710;6.502;2024-01-07T15:01:31;1.70;99.90
52555;DHT22;38455;52.710;6.502;2024-01-07T15:03:56;1.60;99.90
52555;DHT22;38455;52.710;6.502;2024-01-07T15:06:22;1.70;99.90
52555;DHT22;38455;52.710;6.502;2024-01-07T15:08:47;1.70;99.90
52555;DHT22;38455;52.710;6.502;2024-01-07T15:11:14;1.70;99.90
52555;DHT22;38455;52.710;6.502;2024-01-07T15:13:40;1.50;99.90
52555;DHT22;38455;52.710;6.502;2024-01-07T15:16:06;1.30;99.90
52555;DHT22;38455;52.710;6.502;2024-01-07T15:18:32;1.10;99.90
52555;DHT22;38455;52.710;6.502;2024-01-07T15:20:57;0.90;99.90
52555;DHT22;38455;52.710;6.502;2024-01-07T15:23:23;0.80;99.90
52555;DHT22;38455;52.710;6.502;2024-01-07T15:25:49;0.70;99.90
52555;DHT22;38455;52.710;6.502;2024-01-07T15:28:14;0.60;99.90
52555;DHT22;38455;52.710;6.502;2024-01-07T15:30:40;0.60;99.90
52555;DHT22;38455;52.710;6.502;2024-01-07T15:33:06;0.50;99.90
52555;DHT22;38455;52.710;6.502;2024-01-07T15:35:31;0.40;99.90
52555;DHT22;38455;52.710;6.502;2024-01-07T15:37:57;0.40;99.90
52555;DHT22;38455;52.710;6.502;2024-01-07T15:40:23;0.30;99.90